sensor_id;sensor_type;location;lat;lon;timestamp;pressure;altitude;pressure_sealevel;temperature;humidity
49297;BME280;35163;48.878;18.040;2023-03-02T00:00:43;98990.38;;;2.50;58.28
49297;BME280;35163;48.878;18.040;2023-03-02T00:03:14;98999.72;;;2.51;58.45
49297;BME280;35163;48.878;18.040;2023-03-02T00:05:44;98993.84;;;2.58;59.93
49297;BME280;35163;48.878;18.040;2023-03-02T00:08:16;98993.81;;;2.55;59.52
49297;BME280;35163;48.878;18.040;2023-03-02T00:10:43;98990.41;;;2.53;59.71
49297;BME280;35163;48.878;18.040;2023-03-02T00:13:11;98996.31;;;2.49;60.11
49297;BME280;35163;48.878;18.040;2023-03-02T00:15:40;98992.91;;;2.48;61.34
49297;BME280;35163;48.878;18.040;2023-03-02T00:18:07;98999.72;;;2.49;61.84
49297;BME280;35163;48.878;18.040;2023-03-02T00:20:33;98994.59;;;2.48;61.09
49297;BME280;35163;48.878;18.040;2023-03-02T00:23:01;98988.66;;;2.49;61.20
49297;BME280;35163;48.878;18.040;2023-03-02T00:25:27;98994.66;;;2.52;62.05
49297;BME280;35163;48.878;18.040;2023-03-02T00:27:54;98996.34;;;2.50;62.22
49297;BME280;35163;48.878;18.040;2023-03-02T00:30:21;98995.47;;;2.50;61.43
49297;BME280;35163;48.878;18.040;2023-03-02T00:32:48;98990.38;;;2.50;61.98
49297;BME280;35163;48.878;18.040;2023-03-02T00:35:17;98992.94;;;2.51;61.77
49297;BME280;35163;48.878;18.040;2023-03-02T00:37:44;98988.66;;;2.49;61.63
49297;BME280;35163;48.878;18.040;2023-03-02T00:40:11;98993.78;;;2.49;62.36
49297;BME280;35163;48.878;18.040;2023-03-02T00:42:38;98984.34;;;2.45;62.35
49297;BME280;35163;48.878;18.040;2023-03-02T00:45:05;98985.19;;;2.42;62.37
49297;BME280;35163;48.878;18.040;2023-03-02T00:47:33;98987.75;;;2.42;62.43
49297;BME280;35163;48.878;18.040;2023-03-02T00:50:01;98980.03;;;2.40;62.66
49297;BME280;35163;48.878;18.040;2023-03-02T00:52:29;98982.59;;;2.39;62.40
49297;BME280;35163;48.878;18.040;2023-03-02T00:54:56;98975.78;;;2.39;62.25
49297;BME280;35163;48.878;18.040;2023-03-02T00:57:23;98980.00;;;2.36;62.60
49297;BME280;35163;48.878;18.040;2023-03-02T00:59:49;98974.91;;;2.36;62.74
49297;BME280;35163;48.878;18.040;2023-03-02T01:02:16;98978.31;;;2.36;62.22
49297;BME280;35163;48.878;18.040;2023-03-02T01:04:43;98973.97;;;2.29;62.98
49297;BME280;35163;48.878;18.040;2023-03-02T01:07:12;98973.09;;;2.27;62.81
49297;BME280;35163;48.878;18.040;2023-03-02T01:09:40;98967.97;;;2.25;62.74
49297;BME280;35163;48.878;18.040;2023-03-02T01:12:08;98959.41;;;2.18;63.63
49297;BME280;35163;48.878;18.040;2023-03-02T01:14:38;98955.16;;;2.17;63.61
49297;BME280;35163;48.878;18.040;2023-03-02T01:17:06;98961.06;;;2.15;63.44
49297;BME280;35163;48.878;18.040;2023-03-02T01:19:32;98958.56;;;2.18;64.00
49297;BME280;35163;48.878;18.040;2023-03-02T01:21:59;98949.16;;;2.14;63.71
49297;BME280;35163;48.878;18.040;2023-03-02T01:24:26;98947.41;;;2.11;64.01
49297;BME280;35163;48.878;18.040;2023-03-02T01:26:53;98932.91;;;2.05;64.31
49297;BME280;35163;48.878;18.040;2023-03-02T01:29:19;98935.47;;;2.07;62.76
49297;BME280;35163;48.878;18.040;2023-03-02T01:31:46;98933.66;;;1.98;63.44
49297;BME280;35163;48.878;18.040;2023-03-02T01:34:13;98928.56;;;2.00;63.80
49297;BME280;35163;48.878;18.040;2023-03-02T01:36:39;98931.13;;;2.00;63.85
49297;BME280;35163;48.878;18.040;2023-03-02T01:39:06;98929.41;;;1.97;64.41
49297;BME280;35163;48.878;18.040;2023-03-02T01:41:33;98922.47;;;1.85;64.85
49297;BME280;35163;48.878;18.040;2023-03-02T01:43:59;98914.91;;;1.94;64.54
49297;BME280;35163;48.878;18.040;2023-03-02T01:46:29;98911.63;;;2.05;62.36
49297;BME280;35163;48.878;18.040;2023-03-02T01:49:08;98917.50;;;1.99;62.75
49297;BME280;35163;48.878;18.040;2023-03-02T01:51:45;98909.91;;;2.02;63.40
49297;BME280;35163;48.878;18.040;2023-03-02T01:54:15;98906.47;;;1.99;63.35
49297;BME280;35163;48.878;18.040;2023-03-02T01:56:51;98917.56;;;2.01;63.67
49297;BME280;35163;48.878;18.040;2023-03-02T01:59:20;98911.56;;;1.97;62.54
49297;BME280;35163;48.878;18.040;2023-03-02T02:01:51;98918.41;;;2.03;61.70
49297;BME280;35163;48.878;18.040;2023-03-02T02:04:20;98906.50;;;2.02;62.71
49297;BME280;35163;48.878;18.040;2023-03-02T02:06:53;98899.63;;;1.98;63.62
49297;BME280;35163;48.878;18.040;2023-03-02T02:09:22;98898.72;;;1.92;64.41
49297;BME280;35163;48.878;18.040;2023-03-02T02:11:51;98901.25;;;1.89;63.50
49297;BME280;35163;48.878;18.040;2023-03-02T02:14:18;98903.81;;;1.92;64.10
49297;BME280;35163;48.878;18.040;2023-03-02T02:16:45;98903.03;;;1.95;63.68
49297;BME280;35163;48.878;18.040;2023-03-02T02:22:04;98900.41;;;1.89;65.12
49297;BME280;35163;48.878;18.040;2023-03-02T02:24:37;98896.84;;;1.77;65.26
49297;BME280;35163;48.878;18.040;2023-03-02T02:27:06;98890.78;;;1.66;65.53
49297;BME280;35163;48.878;18.040;2023-03-02T02:29:36;98895.94;;;1.70;65.57
49297;BME280;35163;48.878;18.040;2023-03-02T02:32:15;98899.34;;;1.71;65.96
49297;BME280;35163;48.878;18.040;2023-03-02T02:34:49;98892.38;;;1.56;65.69
49297;BME280;35163;48.878;18.040;2023-03-02T02:37:28;98894.06;;;1.57;66.17
49297;BME280;35163;48.878;18.040;2023-03-02T02:39:56;98898.28;;;1.55;65.80
49297;BME280;35163;48.878;18.040;2023-03-02T02:42:27;98896.66;;;1.60;65.78
49297;BME280;35163;48.878;18.040;2023-03-02T02:44:57;98901.72;;;1.58;65.66
49297;BME280;35163;48.878;18.040;2023-03-02T02:47:24;98894.00;;;1.51;66.22
49297;BME280;35163;48.878;18.040;2023-03-02T02:49:52;98884.59;;;1.47;66.20
49297;BME280;35163;48.878;18.040;2023-03-02T02:52:22;98897.47;;;1.56;66.28
49297;BME280;35163;48.878;18.040;2023-03-02T02:54:52;98898.25;;;1.52;66.41
49297;BME280;35163;48.878;18.040;2023-03-02T02:57:19;98895.66;;;1.49;66.23
49297;BME280;35163;48.878;18.040;2023-03-02T02:59:55;98893.13;;;1.49;66.45
49297;BME280;35163;48.878;18.040;2023-03-02T03:02:26;98889.63;;;1.42;66.97
49297;BME280;35163;48.878;18.040;2023-03-02T03:04:53;98897.22;;;1.37;67.51
49297;BME280;35163;48.878;18.040;2023-03-02T03:07:29;98894.69;;;1.37;67.48
49297;BME280;35163;48.878;18.040;2023-03-02T03:10:03;98890.38;;;1.35;67.41
49297;BME280;35163;48.878;18.040;2023-03-02T03:12:31;98883.59;;;1.35;67.27
49297;BME280;35163;48.878;18.040;2023-03-02T03:15:00;98884.47;;;1.37;68.01
49297;BME280;35163;48.878;18.040;2023-03-02T03:17:27;98874.16;;;1.28;67.15
49297;BME280;35163;48.878;18.040;2023-03-02T03:19:54;98884.28;;;1.23;68.09
49297;BME280;35163;48.878;18.040;2023-03-02T03:22:20;98881.78;;;1.28;67.69
49297;BME280;35163;48.878;18.040;2023-03-02T03:24:47;98887.72;;;1.25;67.66
49297;BME280;35163;48.878;18.040;2023-03-02T03:27:15;98885.09;;;1.20;68.06
49297;BME280;35163;48.878;18.040;2023-03-02T03:29:44;98874.97;;;1.25;67.31
49297;BME280;35163;48.878;18.040;2023-03-02T03:32:14;98887.63;;;1.20;67.81
49297;BME280;35163;48.878;18.040;2023-03-02T03:34:41;98884.22;;;1.18;68.32
49297;BME280;35163;48.878;18.040;2023-03-02T03:37:11;98887.63;;;1.19;67.63
49297;BME280;35163;48.878;18.040;2023-03-02T03:39:38;98896.91;;;1.15;67.59
49297;BME280;35163;48.878;18.040;2023-03-02T03:42:05;98885.00;;;1.14;67.72
49297;BME280;35163;48.878;18.040;2023-03-02T03:44:31;98882.47;;;1.14;68.07
49297;BME280;35163;48.878;18.040;2023-03-02T03:46:58;98885.78;;;1.10;67.73
49297;BME280;35163;48.878;18.040;2023-03-02T03:49:25;98890.03;;;1.08;68.13
49297;BME280;35163;48.878;18.040;2023-03-02T03:51:52;98888.31;;;1.08;68.03
49297;BME280;35163;48.878;18.040;2023-03-02T03:54:19;98885.66;;;0.99;68.06
49297;BME280;35163;48.878;18.040;2023-03-02T03:56:47;98891.50;;;0.95;68.65
49297;BME280;35163;48.878;18.040;2023-03-02T03:59:20;98885.47;;;0.88;68.98
49297;BME280;35163;48.878;18.040;2023-03-02T04:01:55;98885.59;;;0.94;69.39
49297;BME280;35163;48.878;18.040;2023-03-02T04:04:31;98888.97;;;0.95;68.52
49297;BME280;35163;48.878;18.040;2023-03-02T04:06:58;98882.97;;;0.91;68.08
49297;BME280;35163;48.878;18.040;2023-03-02T04:09:25;98892.34;;;0.92;68.32
49297;BME280;35163;48.878;18.040;2023-03-02T04:11:54;98892.34;;;0.92;68.59
49297;BME280;35163;48.878;18.040;2023-03-02T04:14:22;98889.75;;;0.89;68.74
49297;BME280;35163;48.878;18.040;2023-03-02T04:16:49;98887.22;;;0.91;68.80
49297;BME280;35163;48.878;18.040;2023-03-02T04:19:16;98886.28;;;0.84;68.87
49297;BME280;35163;48.878;18.040;2023-03-02T04:21:46;98885.47;;;0.87;68.94
49297;BME280;35163;48.878;18.040;2023-03-02T04:24:14;98879.50;;;0.86;68.72
49297;BME280;35163;48.878;18.040;2023-03-02T04:26:42;98886.31;;;0.87;69.86
49297;BME280;35163;48.878;18.040;2023-03-02T04:29:11;98882.81;;;0.80;69.33
49297;BME280;35163;48.878;18.040;2023-03-02T04:31:38;98874.31;;;0.80;68.79
49297;BME280;35163;48.878;18.040;2023-03-02T04:34:05;98880.31;;;0.83;69.03
49297;BME280;35163;48.878;18.040;2023-03-02T04:36:35;98872.66;;;0.82;68.97
49297;BME280;35163;48.878;18.040;2023-03-02T04:39:04;98878.63;;;0.82;68.77
49297;BME280;35163;48.878;18.040;2023-03-02T04:41:31;98868.31;;;0.76;68.82
49297;BME280;35163;48.878;18.040;2023-03-02T04:43:57;98875.94;;;0.75;69.14
49297;BME280;35163;48.878;18.040;2023-03-02T04:46:28;98870.81;;;0.73;68.82
49297;BME280;35163;48.878;18.040;2023-03-02T04:48:55;98866.59;;;0.74;69.18
49297;BME280;35163;48.878;18.040;2023-03-02T04:51:28;98866.56;;;0.72;68.46
49297;BME280;35163;48.878;18.040;2023-03-02T04:53:57;98877.63;;;0.76;69.04
49297;BME280;35163;48.878;18.040;2023-03-02T04:56:24;98874.22;;;0.74;69.07
49297;BME280;35163;48.878;18.040;2023-03-02T04:58:51;98872.53;;;0.76;68.64
49297;BME280;35163;48.878;18.040;2023-03-02T05:01:18;98871.66;;;0.72;69.09
49297;BME280;35163;48.878;18.040;2023-03-02T05:03:45;98874.22;;;0.74;69.30
49297;BME280;35163;48.878;18.040;2023-03-02T05:06:13;98865.78;;;0.76;68.82
49297;BME280;35163;48.878;18.040;2023-03-02T05:08:40;98871.03;;;0.87;68.94
49297;BME280;35163;48.878;18.040;2023-03-02T05:11:07;98877.06;;;0.92;69.63
49297;BME280;35163;48.878;18.040;2023-03-02T05:13:34;98872.72;;;0.87;68.84
49297;BME280;35163;48.878;18.040;2023-03-02T05:16:01;98872.69;;;0.85;68.29
49297;BME280;35163;48.878;18.040;2023-03-02T05:18:27;98879.50;;;0.86;68.64
49297;BME280;35163;48.878;18.040;2023-03-02T05:20:54;98877.75;;;0.82;68.33
49297;BME280;35163;48.878;18.040;2023-03-02T05:23:22;98879.41;;;0.80;69.22
49297;BME280;35163;48.878;18.040;2023-03-02T05:25:52;98875.22;;;0.83;68.20
49297;BME280;35163;48.878;18.040;2023-03-02T05:28:21;98873.47;;;0.81;68.67
49297;BME280;35163;48.878;18.040;2023-03-02T05:30:48;98874.28;;;0.77;68.49
49297;BME280;35163;48.878;18.040;2023-03-02T05:33:15;98880.22;;;0.77;69.24
49297;BME280;35163;48.878;18.040;2023-03-02T05:35:42;98871.72;;;0.75;68.98
49297;BME280;35163;48.878;18.040;2023-03-02T05:38:09;98868.34;;;0.78;69.06
49297;BME280;35163;48.878;18.040;2023-03-02T05:40:37;98870.81;;;0.73;68.53
49297;BME280;35163;48.878;18.040;2023-03-02T05:43:04;98866.53;;;0.70;68.90
49297;BME280;35163;48.878;18.040;2023-03-02T05:45:34;98870.81;;;0.71;69.30
49297;BME280;35163;48.878;18.040;2023-03-02T05:48:02;98876.69;;;0.69;68.94
49297;BME280;35163;48.878;18.040;2023-03-02T05:50:29;98875.88;;;0.70;68.78
49297;BME280;35163;48.878;18.040;2023-03-02T05:52:56;98874.16;;;0.70;68.90
49297;BME280;35163;48.878;18.040;2023-03-02T05:55:25;98876.69;;;0.69;69.44
49297;BME280;35163;48.878;18.040;2023-03-02T05:57:52;98884.31;;;0.69;69.28
49297;BME280;35163;48.878;18.040;2023-03-02T06:00:19;98885.16;;;0.68;69.51
49297;BME280;35163;48.878;18.040;2023-03-02T06:02:46;98882.63;;;0.69;69.47
49297;BME280;35163;48.878;18.040;2023-03-02T06:05:15;98878.41;;;0.70;68.88
49297;BME280;35163;48.878;18.040;2023-03-02T06:07:43;98892.81;;;0.68;69.37
49297;BME280;35163;48.878;18.040;2023-03-02T06:10:11;98887.78;;;0.72;69.70
49297;BME280;35163;48.878;18.040;2023-03-02T06:12:38;98895.44;;;0.74;69.74
49297;BME280;35163;48.878;18.040;2023-03-02T06:15:05;98899.75;;;0.77;69.90
49297;BME280;35163;48.878;18.040;2023-03-02T06:17:32;98891.25;;;0.78;69.69
49297;BME280;35163;48.878;18.040;2023-03-02T06:19:58;98887.09;;;0.83;69.12
49297;BME280;35163;48.878;18.040;2023-03-02T06:22:25;98892.25;;;0.88;69.82
49297;BME280;35163;48.878;18.040;2023-03-02T06:24:52;98891.53;;;0.96;69.58
49297;BME280;35163;48.878;18.040;2023-03-02T06:27:20;98900.16;;;1.05;69.39
49297;BME280;35163;48.878;18.040;2023-03-02T06:29:47;98910.47;;;1.14;68.15
49297;BME280;35163;48.878;18.040;2023-03-02T06:32:14;98903.00;;;1.24;68.14
49297;BME280;35163;48.878;18.040;2023-03-02T06:34:41;98903.13;;;1.35;67.90
49297;BME280;35163;48.878;18.040;2023-03-02T06:37:07;98908.44;;;1.52;67.13
49297;BME280;35163;48.878;18.040;2023-03-02T06:39:34;98899.19;;;1.60;67.27
49297;BME280;35163;48.878;18.040;2023-03-02T06:42:00;98908.66;;;1.67;67.57
49297;BME280;35163;48.878;18.040;2023-03-02T06:44:27;98909.56;;;1.73;66.85
49297;BME280;35163;48.878;18.040;2023-03-02T06:46:54;98907.06;;;1.79;66.98
49297;BME280;35163;48.878;18.040;2023-03-02T06:49:20;98896.09;;;1.83;66.02
49297;BME280;35163;48.878;18.040;2023-03-02T06:51:47;98903.06;;;1.98;65.94
49297;BME280;35163;48.878;18.040;2023-03-02T06:54:13;98911.59;;;2.00;64.85
49297;BME280;35163;48.878;18.040;2023-03-02T06:56:40;98910.81;;;2.06;64.95
49297;BME280;35163;48.878;18.040;2023-03-02T06:59:06;98912.56;;;2.15;64.72
49297;BME280;35163;48.878;18.040;2023-03-02T07:01:33;98911.84;;;2.27;64.64
49297;BME280;35163;48.878;18.040;2023-03-02T07:04:01;98913.63;;;2.34;64.01
49297;BME280;35163;48.878;18.040;2023-03-02T07:06:28;98902.69;;;2.46;64.02
49297;BME280;35163;48.878;18.040;2023-03-02T07:08:55;98913.81;;;2.56;62.95
49297;BME280;35163;48.878;18.040;2023-03-02T07:11:21;98905.34;;;2.57;63.01
49297;BME280;35163;48.878;18.040;2023-03-02T07:13:48;98915.63;;;2.70;62.43
49297;BME280;35163;48.878;18.040;2023-03-02T07:16:16;98914.03;;;2.78;62.58
49297;BME280;35163;48.878;18.040;2023-03-02T07:18:48;98921.78;;;2.90;61.77
49297;BME280;35163;48.878;18.040;2023-03-02T07:21:15;98922.69;;;2.99;62.71
49297;BME280;35163;48.878;18.040;2023-03-02T07:23:41;98908.25;;;3.04;62.88
49297;BME280;35163;48.878;18.040;2023-03-02T07:26:08;98908.31;;;3.10;61.92
49297;BME280;35163;48.878;18.040;2023-03-02T07:28:36;98911.78;;;3.22;61.48
49297;BME280;35163;48.878;18.040;2023-03-02T07:31:05;98916.09;;;3.32;60.75
49297;BME280;35163;48.878;18.040;2023-03-02T07:33:32;98911.84;;;3.33;61.12
49297;BME280;35163;48.878;18.040;2023-03-02T07:35:58;98922.97;;;3.39;61.34
49297;BME280;35163;48.878;18.040;2023-03-02T07:38:25;98907.66;;;3.49;60.66
49297;BME280;35163;48.878;18.040;2023-03-02T07:40:51;98915.41;;;3.66;61.00
49297;BME280;35163;48.878;18.040;2023-03-02T07:43:18;98912.91;;;3.79;60.23
49297;BME280;35163;48.878;18.040;2023-03-02T07:45:45;98910.38;;;3.83;55.43
49297;BME280;35163;48.878;18.040;2023-03-02T07:48:12;98911.25;;;3.85;55.15
49297;BME280;35163;48.878;18.040;2023-03-02T07:50:38;98918.97;;;3.95;54.48
49297;BME280;35163;48.878;18.040;2023-03-02T07:53:05;98909.56;;;3.97;53.70
49297;BME280;35163;48.878;18.040;2023-03-02T07:55:31;98913.03;;;4.05;55.58
49297;BME280;35163;48.878;18.040;2023-03-02T07:57:58;98907.91;;;4.11;53.68
49297;BME280;35163;48.878;18.040;2023-03-02T08:00:24;98915.59;;;4.18;52.47
49297;BME280;35163;48.878;18.040;2023-03-02T08:02:51;98924.09;;;4.10;51.96
49297;BME280;35163;48.878;18.040;2023-03-02T08:05:18;98918.16;;;4.08;51.85
49297;BME280;35163;48.878;18.040;2023-03-02T08:07:45;98928.44;;;4.27;52.37
49297;BME280;35163;48.878;18.040;2023-03-02T08:10:12;98917.38;;;4.41;54.80
49297;BME280;35163;48.878;18.040;2023-03-02T08:12:39;98921.66;;;4.56;52.72
49297;BME280;35163;48.878;18.040;2023-03-02T08:15:06;98919.09;;;4.60;52.78
49297;BME280;35163;48.878;18.040;2023-03-02T08:17:32;98919.94;;;4.66;49.94
49297;BME280;35163;48.878;18.040;2023-03-02T08:19:59;98919.09;;;4.60;49.42
49297;BME280;35163;48.878;18.040;2023-03-02T08:22:28;98919.97;;;4.73;49.05
49297;BME280;35163;48.878;18.040;2023-03-02T08:24:55;98919.97;;;4.78;49.21
49297;BME280;35163;48.878;18.040;2023-03-02T08:27:22;98922.53;;;4.88;48.17
49297;BME280;35163;48.878;18.040;2023-03-02T08:29:49;98913.13;;;4.93;47.50
49297;BME280;35163;48.878;18.040;2023-03-02T08:32:15;98903.72;;;5.03;47.87
49297;BME280;35163;48.878;18.040;2023-03-02T08:34:42;98912.28;;;5.05;47.63
49297;BME280;35163;48.878;18.040;2023-03-02T08:37:08;98908.00;;;5.12;46.82
49297;BME280;35163;48.878;18.040;2023-03-02T08:39:35;98902.81;;;5.24;46.87
49297;BME280;35163;48.878;18.040;2023-03-02T08:42:02;98905.38;;;5.27;46.57
49297;BME280;35163;48.878;18.040;2023-03-02T08:44:28;98900.25;;;5.38;46.31
49297;BME280;35163;48.878;18.040;2023-03-02T08:46:55;98899.41;;;5.41;45.09
49297;BME280;35163;48.878;18.040;2023-03-02T08:49:21;98898.47;;;5.56;45.67
49297;BME280;35163;48.878;18.040;2023-03-02T08:51:48;98894.19;;;5.53;44.29
49297;BME280;35163;48.878;18.040;2023-03-02T08:54:19;98894.19;;;5.53;44.89
49297;BME280;35163;48.878;18.040;2023-03-02T08:56:46;98894.19;;;5.61;44.66
49297;BME280;35163;48.878;18.040;2023-03-02T08:59:14;98884.75;;;5.71;45.35
49297;BME280;35163;48.878;18.040;2023-03-02T09:01:41;98890.75;;;5.64;45.22
49297;BME280;35163;48.878;18.040;2023-03-02T09:04:09;98883.03;;;5.73;45.98
49297;BME280;35163;48.878;18.040;2023-03-02T09:06:39;98876.16;;;5.81;45.64
49297;BME280;35163;48.878;18.040;2023-03-02T09:09:08;98883.81;;;5.88;45.45
49297;BME280;35163;48.878;18.040;2023-03-02T09:11:35;98871.78;;;5.99;44.87
49297;BME280;35163;48.878;18.040;2023-03-02T09:14:03;98876.03;;;6.06;45.30
49297;BME280;35163;48.878;18.040;2023-03-02T09:16:29;98878.59;;;6.11;45.21
49297;BME280;35163;48.878;18.040;2023-03-02T09:18:57;98870.84;;;6.19;44.53
49297;BME280;35163;48.878;18.040;2023-03-02T09:21:24;98869.06;;;6.26;44.02
49297;BME280;35163;48.878;18.040;2023-03-02T09:23:51;98870.78;;;6.30;44.33
49297;BME280;35163;48.878;18.040;2023-03-02T09:26:21;98869.00;;;6.34;44.26
49297;BME280;35163;48.878;18.040;2023-03-02T09:28:48;98863.81;;;6.44;44.69
49297;BME280;35163;48.878;18.040;2023-03-02T09:31:15;98862.88;;;6.56;45.03
49297;BME280;35163;48.878;18.040;2023-03-02T09:33:41;98875.75;;;6.53;44.86
49297;BME280;35163;48.878;18.040;2023-03-02T09:36:10;98864.56;;;6.61;45.01
49297;BME280;35163;48.878;18.040;2023-03-02T09:38:37;98864.50;;;6.67;44.90
49297;BME280;35163;48.878;18.040;2023-03-02T09:43:44;98864.34;;;6.86;44.23
49297;BME280;35163;48.878;18.040;2023-03-02T09:51:49;98859.84;;;7.08;45.28
49297;BME280;35163;48.878;18.040;2023-03-02T09:54:21;98860.63;;;7.15;44.92
49297;BME280;35163;48.878;18.040;2023-03-02T09:56:55;98852.03;;;7.17;43.90
49297;BME280;35163;48.878;18.040;2023-03-02T09:59:37;98861.38;;;7.23;43.05
49297;BME280;35163;48.878;18.040;2023-03-02T10:04:43;98845.72;;;7.44;43.47
49297;BME280;35163;48.878;18.040;2023-03-02T10:09:41;98843.88;;;7.57;42.64
49297;BME280;35163;48.878;18.040;2023-03-02T10:14:50;98844.66;;;7.63;42.14
49297;BME280;35163;48.878;18.040;2023-03-02T10:20:03;98833.25;;;7.82;42.88
49297;BME280;35163;48.878;18.040;2023-03-02T10:22:55;98840.91;;;7.88;42.64
49297;BME280;35163;48.878;18.040;2023-03-02T10:25:36;98828.72;;;7.99;42.58
49297;BME280;35163;48.878;18.040;2023-03-02T10:28:31;98825.16;;;8.10;42.99
49297;BME280;35163;48.878;18.040;2023-03-02T10:31:10;98823.31;;;8.18;42.99
49297;BME280;35163;48.878;18.040;2023-03-02T10:33:39;98821.41;;;8.30;42.84
49297;BME280;35163;48.878;18.040;2023-03-02T10:36:21;98816.13;;;8.39;42.94
49297;BME280;35163;48.878;18.040;2023-03-02T10:38:49;98814.31;;;8.44;42.58
49297;BME280;35163;48.878;18.040;2023-03-02T10:41:20;98814.16;;;8.54;42.51
49297;BME280;35163;48.878;18.040;2023-03-02T10:43:56;98803.72;;;8.63;43.40
49297;BME280;35163;48.878;18.040;2023-03-02T10:46:24;98812.16;;;8.71;42.83
49297;BME280;35163;48.878;18.040;2023-03-02T10:48:54;98805.13;;;8.80;43.10
49297;BME280;35163;48.878;18.040;2023-03-02T10:51:30;98798.22;;;8.82;41.88
49297;BME280;35163;48.878;18.040;2023-03-02T10:54:10;98794.72;;;8.87;42.18
49297;BME280;35163;48.878;18.040;2023-03-02T10:56:40;98794.56;;;8.95;42.45
49297;BME280;35163;48.878;18.040;2023-03-02T10:59:26;98791.81;;;9.03;42.07
49297;BME280;35163;48.878;18.040;2023-03-02T11:02:23;98795.16;;;9.10;42.14
49297;BME280;35163;48.878;18.040;2023-03-02T11:04:58;98791.47;;;9.22;42.58
49297;BME280;35163;48.878;18.040;2023-03-02T11:07:39;98791.28;;;9.31;43.08
49297;BME280;35163;48.878;18.040;2023-03-02T11:10:17;98783.41;;;9.38;42.28
49297;BME280;35163;48.878;18.040;2023-03-02T11:12:49;98778.16;;;9.42;41.75
49297;BME280;35163;48.878;18.040;2023-03-02T11:20:41;98760.69;;;9.54;42.31
49297;BME280;35163;48.878;18.040;2023-03-02T11:23:39;98763.13;;;9.60;41.83
49297;BME280;35163;48.878;18.040;2023-03-02T11:28:51;98764.56;;;9.75;42.35
49297;BME280;35163;48.878;18.040;2023-03-02T11:31:25;98763.59;;;9.79;42.81
49297;BME280;35163;48.878;18.040;2023-03-02T11:40:08;98749.25;;;10.04;43.34
49297;BME280;35163;48.878;18.040;2023-03-02T11:42:42;98744.72;;;10.14;43.15
49297;BME280;35163;48.878;18.040;2023-03-02T11:51:17;98734.75;;;10.33;42.87
49297;BME280;35163;48.878;18.040;2023-03-02T11:54:02;98721.69;;;10.39;43.11
49297;BME280;35163;48.878;18.040;2023-03-02T11:56:35;98724.94;;;10.46;42.62
49297;BME280;35163;48.878;18.040;2023-03-02T11:59:12;98722.22;;;10.54;43.00
49297;BME280;35163;48.878;18.040;2023-03-02T12:01:44;98717.75;;;10.59;42.81
49297;BME280;35163;48.878;18.040;2023-03-02T12:04:30;98716.69;;;10.66;42.29
49297;BME280;35163;48.878;18.040;2023-03-02T12:09:43;98707.78;;;10.77;42.31
49297;BME280;35163;48.878;18.040;2023-03-02T12:14:49;98703.28;;;10.84;42.17
49297;BME280;35163;48.878;18.040;2023-03-02T12:17:30;98698.94;;;10.86;41.40
49297;BME280;35163;48.878;18.040;2023-03-02T12:20:08;98690.97;;;10.93;41.90
49297;BME280;35163;48.878;18.040;2023-03-02T12:22:36;98691.63;;;11.00;41.81
49297;BME280;35163;48.878;18.040;2023-03-02T12:25:26;98693.19;;;11.06;41.65
49297;BME280;35163;48.878;18.040;2023-03-02T12:27:54;98690.38;;;11.14;41.65
49297;BME280;35163;48.878;18.040;2023-03-02T12:30:25;98682.47;;;11.18;41.16
49297;BME280;35163;48.878;18.040;2023-03-02T12:35:36;98683.00;;;11.30;41.20
49297;BME280;35163;48.878;18.040;2023-03-02T12:38:22;98686.75;;;11.20;38.93
49297;BME280;35163;48.878;18.040;2023-03-02T12:43:55;98676.22;;;11.26;40.49
49297;BME280;35163;48.878;18.040;2023-03-02T12:46:35;98673.34;;;11.35;39.94
49297;BME280;35163;48.878;18.040;2023-03-02T12:49:29;98674.84;;;11.42;40.01
49297;BME280;35163;48.878;18.040;2023-03-02T12:52:02;98662.63;;;11.48;39.14
49297;BME280;35163;48.878;18.040;2023-03-02T12:54:31;98665.81;;;11.56;39.05
49297;BME280;35163;48.878;18.040;2023-03-02T12:59:34;98658.63;;;11.64;38.55
49297;BME280;35163;48.878;18.040;2023-03-02T13:02:18;98656.78;;;11.68;38.11
49297;BME280;35163;48.878;18.040;2023-03-02T13:04:54;98655.00;;;11.70;37.46
49297;BME280;35163;48.878;18.040;2023-03-02T13:07:26;98655.75;;;11.74;37.63
49297;BME280;35163;48.878;18.040;2023-03-02T13:09:56;98649.66;;;11.75;37.49
49297;BME280;35163;48.878;18.040;2023-03-02T13:12:27;98647.88;;;11.77;37.79
49297;BME280;35163;48.878;18.040;2023-03-02T13:14:58;98640.06;;;11.78;37.21
49297;BME280;35163;48.878;18.040;2023-03-02T13:17:27;98639.94;;;11.82;36.94
49297;BME280;35163;48.878;18.040;2023-03-02T13:20:00;98637.41;;;11.80;35.87
49297;BME280;35163;48.878;18.040;2023-03-02T13:22:28;98627.97;;;11.79;34.47
49297;BME280;35163;48.878;18.040;2023-03-02T13:25:00;98625.16;;;11.85;35.36
49297;BME280;35163;48.878;18.040;2023-03-02T13:27:29;98624.22;;;11.88;34.63
49297;BME280;35163;48.878;18.040;2023-03-02T13:30:11;98621.47;;;11.93;34.76
49297;BME280;35163;48.878;18.040;2023-03-02T13:32:40;98620.72;;;11.89;34.31
49297;BME280;35163;48.878;18.040;2023-03-02T13:35:25;98612.91;;;11.90;34.77
49297;BME280;35163;48.878;18.040;2023-03-02T13:42:56;98604.78;;;12.01;35.26
49297;BME280;35163;48.878;18.040;2023-03-02T13:45:26;98602.13;;;12.03;35.73
49297;BME280;35163;48.878;18.040;2023-03-02T13:47:55;98602.88;;;12.07;35.80
49297;BME280;35163;48.878;18.040;2023-03-02T13:50:30;98597.63;;;12.08;35.60
49297;BME280;35163;48.878;18.040;2023-03-02T13:52:59;98602.81;;;12.08;36.20
49297;BME280;35163;48.878;18.040;2023-03-02T13:55:27;98590.69;;;12.10;35.68
49297;BME280;35163;48.878;18.040;2023-03-02T13:57:54;98589.75;;;12.11;35.26
49297;BME280;35163;48.878;18.040;2023-03-02T14:00:27;98587.84;;;12.17;36.24
49297;BME280;35163;48.878;18.040;2023-03-02T14:02:56;98582.63;;;12.18;36.78
49297;BME280;35163;48.878;18.040;2023-03-02T14:05:24;98580.78;;;12.22;36.55
49297;BME280;35163;48.878;18.040;2023-03-02T14:07:52;98583.25;;;12.25;36.45
49297;BME280;35163;48.878;18.040;2023-03-02T14:10:19;98568.53;;;12.25;36.33